Time;durP1;ratioP1;P1;durP2;ratioP2;P2;SDS_P1;SDS_P2;PMS_P1;PMS_P2;Temp;Humidity;BMP_temperature;BMP_pressure;BME280_temperature;BME280_humidity;BME280_pressure;Samples;Min_cycle;Max_cycle;Signal;HPM_P1;HPM_P2
2021/04/15 00:01:16;;;;;;;6.78;4.60;;;6.70;52.70;;;;;;5127313;27;20076;-67
2021/04/15 00:03:42;;;;;;;11.60;5.20;;;6.70;53.00;;;;;;5127303;27;20050;-68
2021/04/15 00:06:13;;;;;;;8.18;5.15;;;6.70;53.10;;;;;;5112340;28;20020;-67
2021/04/15 00:08:40;;;;;;;12.50;5.28;;;6.70;53.40;;;;;;5116310;28;20023;-68
2021/04/15 00:11:07;;;;;;;9.27;4.75;;;6.60;53.50;;;;;;5114436;28;20435;-67
2021/04/15 00:13:37;;;;;;;11.23;4.10;;;6.50;53.70;;;;;;5128093;28;20547;-66
2021/04/15 00:16:03;;;;;;;7.85;3.88;;;6.50;53.30;;;;;;5131621;27;20027;-66
2021/04/15 00:18:29;;;;;;;5.47;3.33;;;6.50;52.80;;;;;;5122571;27;20473;-67
2021/04/15 00:20:56;;;;;;;6.72;4.35;;;6.50;52.50;;;;;;5116477;28;20038;-68
2021/04/15 00:23:22;;;;;;;9.05;4.78;;;6.40;52.80;;;;;;5130750;27;20027;-66
2021/04/15 00:25:48;;;;;;;8.85;4.60;;;6.30;53.00;;;;;;5136949;27;20502;-67
2021/04/15 00:28:15;;;;;;;8.43;4.95;;;6.30;53.60;;;;;;5132826;27;20106;-67
2021/04/15 00:30:41;;;;;;;7.93;4.53;;;6.20;53.90;;;;;;5136946;27;20041;-67
2021/04/15 00:33:08;;;;;;;6.82;4.45;;;6.20;54.20;;;;;;5136378;27;20073;-66
2021/04/15 00:35:40;;;;;;;7.20;4.80;;;6.10;54.30;;;;;;5136942;27;20027;-67
2021/04/15 00:38:07;;;;;;;8.82;4.93;;;6.10;54.40;;;;;;5119667;27;20029;-67
2021/04/15 00:40:36;;;;;;;7.10;3.83;;;6.10;54.40;;;;;;5135483;27;20019;-66
2021/04/15 00:43:03;;;;;;;6.68;4.25;;;6.00;54.10;;;;;;5136606;27;20019;-67
2021/04/15 00:45:41;;;;;;;5.80;4.05;;;6.00;53.80;;;;;;5136513;27;20038;-67
2021/04/15 00:48:28;;;;;;;6.72;3.67;;;6.00;53.50;;;;;;5130466;27;20047;-67
2021/04/15 00:51:16;;;;;;;6.50;3.47;;;5.90;53.40;;;;;;5133097;27;20531;-66
2021/04/15 00:53:55;;;;;;;11.88;4.75;;;5.80;53.20;;;;;;5128868;27;20055;-68
2021/04/15 00:56:22;;;;;;;6.50;3.83;;;5.80;53.20;;;;;;5115941;28;20035;-68
2021/04/15 00:58:50;;;;;;;6.75;4.00;;;5.70;53.00;;;;;;5130342;27;20019;-66
2021/04/15 01:01:17;;;;;;;6.15;4.18;;;5.70;52.90;;;;;;5125695;27;20129;-67
2021/04/15 01:03:43;;;;;;;5.43;3.47;;;5.60;53.20;;;;;;5120734;27;20361;-67
2021/04/15 01:06:09;;;;;;;7.22;3.67;;;5.60;53.20;;;;;;5118249;27;20033;-67
2021/04/15 01:08:35;;;;;;;9.68;3.90;;;5.50;53.60;;;;;;5135839;27;20422;-67
2021/04/15 01:11:38;;;;;;;6.68;4.05;;;5.50;53.00;;;;;;5136119;27;20030;-67
2021/04/15 01:14:22;;;;;;;6.15;3.47;;;5.40;53.30;;;;;;5125260;27;20112;-68
2021/04/15 01:17:02;;;;;;;5.25;3.90;;;5.40;53.00;;;;;;5133112;27;20019;-67
2021/04/15 01:20:03;;;;;;;8.77;4.40;;;5.40;53.30;;;;;;5129761;27;20508;-68
2021/04/15 01:22:49;;;;;;;11.32;3.78;;;5.30;53.20;;;;;;5135902;27;20039;-66
2021/04/15 01:25:29;;;;;;;13.88;4.53;;;5.30;53.00;;;;;;5116103;27;20373;-68
2021/04/15 01:28:01;;;;;;;8.95;4.13;;;5.20;53.30;;;;;;5134069;27;20027;-66
2021/04/15 01:30:37;;;;;;;6.00;4.15;;;5.20;53.50;;;;;;5134465;27;20088;-68
2021/04/15 01:33:15;;;;;;;6.15;4.00;;;5.20;53.50;;;;;;5135767;27;20030;-66
2021/04/15 01:35:50;;;;;;;7.68;4.25;;;5.10;53.50;;;;;;5135138;27;20270;-67
2021/04/15 01:38:30;;;;;;;5.55;3.58;;;5.10;53.70;;;;;;5133340;27;20019;-66
2021/04/15 01:41:11;;;;;;;7.47;3.40;;;5.00;53.60;;;;;;5135424;27;20075;-67
2021/04/15 01:44:06;;;;;;;3.78;2.80;;;5.00;53.50;;;;;;5135623;27;20012;-67
2021/04/15 01:46:36;;;;;;;5.15;3.00;;;5.00;53.30;;;;;;5133949;27;20118;-68
2021/04/15 01:49:06;;;;;;;9.55;4.07;;;5.00;53.10;;;;;;5135280;27;20030;-66
2021/04/15 01:51:38;;;;;;;9.38;4.07;;;5.00;53.40;;;;;;5133053;27;20031;-67
2021/04/15 01:54:13;;;;;;;6.10;3.20;;;4.90;53.40;;;;;;5135356;27;20023;-65
2021/04/15 01:56:46;;;;;;;7.40;3.90;;;4.90;53.50;;;;;;5134927;27;20552;-66
2021/04/15 01:59:12;;;;;;;4.90;3.03;;;4.90;53.60;;;;;;5135232;27;20080;-66
2021/04/15 02:01:42;;;;;;;8.52;3.80;;;4.90;53.50;;;;;;5135031;27;20472;-68
2021/04/15 02:04:13;;;;;;;7.50;3.83;;;4.80;53.80;;;;;;5124596;27;20388;-67
2021/04/15 02:06:43;;;;;;;8.30;4.35;;;4.80;54.20;;;;;;5132621;27;20023;-67
2021/04/15 02:09:12;;;;;;;5.13;3.38;;;4.80;55.00;;;;;;5134906;27;20042;-68
2021/04/15 02:11:57;;;;;;;6.00;3.35;;;4.80;55.10;;;;;;5134561;27;20399;-67
2021/04/15 02:14:28;;;;;;;7.20;3.13;;;4.80;54.90;;;;;;5134643;27;20106;-66
2021/04/15 02:16:58;;;;;;;10.48;3.95;;;4.80;54.60;;;;;;5119913;27;20103;-68
2021/04/15 02:19:30;;;;;;;10.25;3.67;;;4.80;54.50;;;;;;5115796;27;20426;-66
2021/04/15 02:22:11;;;;;;;8.32;3.90;;;4.80;54.50;;;;;;5134641;27;20027;-67
2021/04/15 02:24:39;;;;;;;6.53;3.53;;;4.70;54.80;;;;;;5128093;27;20019;-66
2021/04/15 02:27:44;;;;;;;7.35;3.70;;;4.70;54.90;;;;;;5134550;27;20045;-66
2021/04/15 02:30:36;;;;;;;8.55;3.75;;;4.70;55.10;;;;;;5090763;28;20083;-67
2021/04/15 02:33:23;;;;;;;7.90;3.63;;;4.70;55.00;;;;;;5077431;28;20036;-66
2021/04/15 02:36:00;;;;;;;4.45;2.90;;;4.70;54.80;;;;;;5091162;28;20032;-66
2021/04/15 02:38:35;;;;;;;7.35;3.60;;;4.70;54.50;;;;;;5090227;28;20048;-68
2021/04/15 02:41:05;;;;;;;6.22;3.40;;;4.60;54.30;;;;;;5090525;28;20129;-66
2021/04/15 02:43:52;;;;;;;6.10;3.22;;;4.60;54.10;;;;;;5090501;28;20038;-66
2021/04/15 02:46:25;;;;;;;10.18;2.80;;;4.60;54.10;;;;;;5090969;28;20107;-67
2021/04/15 02:48:53;;;;;;;11.95;3.45;;;4.50;53.80;;;;;;5090403;28;20035;-67
2021/04/15 02:51:26;;;;;;;8.93;3.40;;;4.50;53.80;;;;;;5090528;28;20052;-68
2021/04/15 02:54:15;;;;;;;6.95;2.95;;;4.50;54.00;;;;;;5089968;28;20040;-68
2021/04/15 02:56:48;;;;;;;5.82;2.80;;;4.50;54.00;;;;;;5090755;28;20031;-66
2021/04/15 02:59:21;;;;;;;6.80;3.47;;;4.40;53.80;;;;;;5090529;28;20036;-67
2021/04/15 03:01:54;;;;;;;7.63;3.00;;;4.40;53.90;;;;;;5091181;28;20135;-67
2021/04/15 03:04:21;;;;;;;8.73;3.50;;;4.40;53.80;;;;;;5081476;28;20169;-67
2021/04/15 03:06:49;;;;;;;8.43;3.40;;;4.40;53.90;;;;;;5114267;27;20035;-68
2021/04/15 03:09:18;;;;;;;6.30;2.97;;;4.40;54.00;;;;;;5134013;27;20571;-66
2021/04/15 03:11:58;;;;;;;7.00;3.30;;;4.40;54.00;;;;;;5133135;27;20104;-67
2021/04/15 03:14:32;;;;;;;4.88;2.95;;;4.30;54.10;;;;;;5114065;28;20012;-66
2021/04/15 03:17:07;;;;;;;7.28;3.13;;;4.30;54.10;;;;;;5115328;27;20473;-68
2021/04/15 03:19:39;;;;;;;6.82;3.42;;;4.30;54.10;;;;;;5134537;27;20023;-67
2021/04/15 03:22:38;;;;;;;9.23;3.97;;;4.40;54.10;;;;;;5129096;27;20054;-67
2021/04/15 03:25:05;;;;;;;6.20;3.30;;;4.40;54.40;;;;;;5134220;27;20020;-66
2021/04/15 03:28:06;;;;;;;8.45;3.58;;;4.40;54.40;;;;;;5127943;27;20026;-66
2021/04/15 03:30:56;;;;;;;8.80;3.47;;;4.40;54.40;;;;;;5126569;27;20435;-67
2021/04/15 03:33:30;;;;;;;7.90;3.00;;;4.50;54.70;;;;;;5131050;27;20050;-68
2021/04/15 03:36:08;;;;;;;9.15;3.65;;;4.60;54.80;;;;;;5113689;28;20156;-67
2021/04/15 03:38:40;;;;;;;11.95;4.28;;;4.70;54.80;;;;;;5129222;27;20019;-68
2021/04/15 03:41:20;;;;;;;8.52;3.20;;;4.80;54.80;;;;;;5132096;27;20027;-67
2021/04/15 03:43:58;;;;;;;14.15;4.00;;;4.80;54.60;;;;;;5113535;28;20389;-67
2021/04/15 03:46:33;;;;;;;6.78;2.78;;;4.90;54.60;;;;;;5114703;27;20488;-66
2021/04/15 03:49:21;;;;;;;7.25;3.60;;;5.00;54.40;;;;;;5132649;27;20033;-68
2021/04/15 03:51:51;;;;;;;13.43;3.88;;;5.00;54.20;;;;;;5126513;27;20180;-66
2021/04/15 03:54:28;;;;;;;5.65;3.40;;;5.10;54.00;;;;;;5123496;27;20176;-66
2021/04/15 03:56:57;;;;;;;10.15;3.80;;;5.10;54.00;;;;;;5114345;28;20465;-66
2021/04/15 03:59:52;;;;;;;27.27;11.60;;;5.20;53.90;;;;;;5133642;27;20051;-67
2021/04/15 04:02:26;;;;;;;10.23;5.63;;;5.20;53.70;;;;;;5132859;27;20083;-67
2021/04/15 04:04:57;;;;;;;10.20;4.13;;;5.30;53.60;;;;;;5131161;27;20031;-66
2021/04/15 04:07:33;;;;;;;13.98;4.28;;;5.30;53.60;;;;;;5118319;28;20260;-67
2021/04/15 04:10:06;;;;;;;14.25;4.45;;;5.30;53.80;;;;;;5133481;27;20027;-66
2021/04/15 04:12:41;;;;;;;7.18;3.22;;;5.30;53.80;;;;;;5132167;28;20046;-67
2021/04/15 04:15:16;;;;;;;11.43;4.05;;;5.40;53.70;;;;;;5133097;28;20027;-67
2021/04/15 04:17:45;;;;;;;4.88;3.08;;;5.40;53.80;;;;;;5132173;28;20023;-66
2021/04/15 04:20:13;;;;;;;4.15;2.78;;;5.40;53.70;;;;;;5132340;27;20019;-68
2021/04/15 04:22:58;;;;;;;5.72;3.63;;;5.40;53.70;;;;;;5133376;27;20027;-66
2021/04/15 04:25:32;;;;;;;6.78;3.28;;;5.40;53.80;;;;;;5133581;27;20015;-66
2021/04/15 04:28:13;;;;;;;8.07;2.92;;;5.40;53.80;;;;;;5133048;27;20027;-66
2021/04/15 04:30:47;;;;;;;8.48;3.55;;;5.40;54.30;;;;;;5133397;27;20072;-66
2021/04/15 04:33:16;;;;;;;8.00;3.30;;;5.50;54.40;;;;;;5133212;27;20030;-67
2021/04/15 04:35:46;;;;;;;6.70;3.38;;;5.60;53.70;;;;;;5133493;27;20486;-67
2021/04/15 04:38:15;;;;;;;10.40;3.22;;;5.60;53.60;;;;;;5133545;27;20020;-66
2021/04/15 04:40:45;;;;;;;13.27;4.20;;;5.70;53.60;;;;;;5133304;27;20377;-67
2021/04/15 04:43:17;;;;;;;5.53;3.50;;;5.70;53.50;;;;;;5133037;27;20030;-67
2021/04/15 04:45:43;;;;;;;10.90;3.90;;;5.70;53.20;;;;;;5133206;27;20027;-68
2021/04/15 04:48:23;;;;;;;6.45;3.30;;;5.80;53.00;;;;;;5132837;27;20030;-66
2021/04/15 04:50:54;;;;;;;10.27;3.75;;;5.80;52.70;;;;;;5133101;27;20046;-66
2021/04/15 04:53:23;;;;;;;6.32;2.83;;;5.80;52.40;;;;;;5133082;27;20085;-68
2021/04/15 04:56:12;;;;;;;7.88;3.60;;;5.80;52.30;;;;;;5133257;27;20015;-68
2021/04/15 04:58:39;;;;;;;7.65;3.20;;;5.80;52.30;;;;;;5131828;28;20027;-66
2021/04/15 05:01:06;;;;;;;6.53;3.45;;;5.90;52.30;;;;;;5133152;27;20020;-66
2021/04/15 05:03:33;;;;;;;9.43;3.25;;;5.90;52.20;;;;;;5132780;27;20016;-66
2021/04/15 05:06:17;;;;;;;12.88;3.90;;;5.90;52.10;;;;;;5135454;27;20377;-68
2021/04/15 05:09:05;;;;;;;10.93;4.18;;;5.90;51.90;;;;;;5136579;27;20117;-68
2021/04/15 05:11:35;;;;;;;7.78;3.72;;;5.90;51.70;;;;;;5136851;27;20050;-68
2021/04/15 05:14:01;;;;;;;8.77;4.43;;;6.00;51.70;;;;;;5136606;27;20102;-67
2021/04/15 05:16:36;;;;;;;8.18;3.22;;;6.00;51.60;;;;;;5135348;27;20027;-67
2021/04/15 05:19:02;;;;;;;6.90;3.10;;;6.10;52.10;;;;;;5136437;27;20019;-66
2021/04/15 05:21:31;;;;;;;8.07;3.95;;;6.10;51.40;;;;;;5135346;27;20030;-67
2021/04/15 05:24:04;;;;;;;8.32;3.45;;;6.10;50.90;;;;;;5136135;27;20094;-67
2021/04/15 05:26:34;;;;;;;6.95;3.88;;;6.20;50.90;;;;;;5144978;27;20109;-66
2021/04/15 05:29:02;;;;;;;6.15;3.10;;;6.20;50.70;;;;;;5142155;27;20019;-66
2021/04/15 05:31:32;;;;;;;10.57;3.33;;;6.30;50.70;;;;;;5136364;27;20047;-68
2021/04/15 05:34:00;;;;;;;8.70;3.70;;;6.40;50.70;;;;;;5136258;27;20063;-66
2021/04/15 05:36:38;;;;;;;11.85;4.00;;;6.40;50.50;;;;;;5136444;27;20372;-68
2021/04/15 05:39:09;;;;;;;10.02;4.00;;;6.50;50.40;;;;;;5135803;27;20030;-67
2021/04/15 05:41:45;;;;;;;9.25;3.80;;;6.60;50.30;;;;;;5136378;27;20027;-66
2021/04/15 05:44:41;;;;;;;6.25;3.25;;;6.60;50.20;;;;;;5136102;27;20055;-66
2021/04/15 05:47:28;;;;;;;18.10;6.15;;;6.70;50.40;;;;;;5136336;27;20092;-67
2021/04/15 05:50:11;;;;;;;9.05;4.03;;;6.80;50.20;;;;;;5135711;27;20594;-68
2021/04/15 05:52:43;;;;;;;10.18;4.03;;;6.80;50.00;;;;;;5140870;27;20463;-68
2021/04/15 05:55:15;;;;;;;13.15;4.80;;;6.90;50.20;;;;;;5136999;27;20374;-67
2021/04/15 05:57:44;;;;;;;14.73;4.70;;;7.00;50.20;;;;;;5133321;27;20387;-66
2021/04/15 06:00:16;;;;;;;9.27;4.78;;;7.10;50.10;;;;;;5123766;27;20487;-68
2021/04/15 06:03:13;;;;;;;14.13;4.60;;;7.20;50.10;;;;;;5132351;27;20478;-68
2021/04/15 06:05:53;;;;;;;9.55;4.20;;;7.30;49.90;;;;;;5135017;27;20050;-65
2021/04/15 06:08:19;;;;;;;13.00;4.60;;;7.40;49.80;;;;;;5143913;27;20369;-68
2021/04/15 06:10:45;;;;;;;12.60;4.22;;;7.50;49.70;;;;;;5134289;27;20408;-67
2021/04/15 06:13:23;;;;;;;11.10;3.75;;;7.70;49.70;;;;;;5132827;27;20033;-68
2021/04/15 06:15:52;;;;;;;12.13;4.65;;;7.80;49.60;;;;;;5134616;27;20106;-69
2021/04/15 06:18:37;;;;;;;9.00;4.22;;;7.90;49.20;;;;;;5133839;27;20019;-67
2021/04/15 06:21:21;;;;;;;10.25;3.92;;;8.00;48.90;;;;;;5134747;27;20027;-66
2021/04/15 06:23:55;;;;;;;9.88;3.75;;;8.20;48.70;;;;;;5132795;27;20027;-67
2021/04/15 06:26:31;;;;;;;8.48;3.55;;;8.30;48.40;;;;;;5134503;27;20139;-68
2021/04/15 06:29:02;;;;;;;9.23;3.53;;;8.40;48.10;;;;;;5133957;27;20507;-68
2021/04/15 06:31:29;;;;;;;5.90;3.17;;;8.50;47.80;;;;;;5134372;27;20046;-67
2021/04/15 06:33:59;;;;;;;6.93;3.50;;;8.60;47.80;;;;;;5112553;28;20111;-68
2021/04/15 06:36:45;;;;;;;11.13;3.80;;;8.70;47.70;;;;;;5134617;27;20031;-68
2021/04/15 06:39:21;;;;;;;7.82;3.47;;;8.80;47.40;;;;;;5134069;27;20015;-68
2021/04/15 06:42:17;;;;;;;10.48;3.45;;;8.90;47.30;;;;;;5133886;27;20023;-68
2021/04/15 06:45:16;;;;;;;9.52;3.50;;;9.00;46.90;;;;;;5134201;27;20023;-67
2021/04/15 06:48:04;;;;;;;8.02;3.55;;;9.10;46.60;;;;;;5134893;27;20369;-68
2021/04/15 06:50:44;;;;;;;9.02;3.30;;;9.20;46.40;;;;;;5133899;27;20122;-67
2021/04/15 06:53:30;;;;;;;12.63;3.53;;;9.20;46.10;;;;;;5133982;27;20084;-66
2021/04/15 06:56:30;;;;;;;7.70;3.60;;;9.30;45.70;;;;;;5130983;27;20023;-68
2021/04/15 06:59:22;;;;;;;10.75;3.83;;;9.30;45.40;;;;;;5133722;27;20049;-67
2021/04/15 07:02:18;;;;;;;10.82;3.95;;;9.30;45.30;;;;;;5134693;27;20024;-67
2021/04/15 07:04:52;;;;;;;8.82;3.75;;;9.40;45.50;;;;;;5133604;27;20078;-68
2021/04/15 07:07:35;;;;;;;6.78;3.35;;;9.40;45.50;;;;;;5128778;27;20480;-68
2021/04/15 07:10:16;;;;;;;9.63;3.30;;;9.40;45.70;;;;;;5126859;27;20384;-68
2021/04/15 07:13:00;;;;;;;6.97;3.13;;;9.60;45.80;;;;;;5129445;27;20494;-68
2021/04/15 07:16:00;;;;;;;6.07;3.20;;;9.60;45.90;;;;;;5134219;27;20019;-67
2021/04/15 07:18:47;;;;;;;8.27;3.28;;;9.70;45.60;;;;;;5135063;27;20015;-68
2021/04/15 07:21:51;;;;;;;11.50;3.38;;;9.80;45.50;;;;;;5134126;27;20104;-66
2021/04/15 07:24:28;;;;;;;6.70;3.17;;;9.90;44.90;;;;;;5113490;27;20030;-67
2021/04/15 07:27:17;;;;;;;6.88;3.25;;;10.00;44.60;;;;;;5131827;27;20101;-69
2021/04/15 07:30:20;;;;;;;7.05;3.45;;;10.00;44.40;;;;;;5133214;27;20465;-67
2021/04/15 07:33:14;;;;;;;7.40;3.40;;;10.00;44.40;;;;;;5132589;27;20059;-68
2021/04/15 07:36:17;;;;;;;10.40;3.53;;;10.00;44.10;;;;;;5139772;27;20383;-67
2021/04/15 07:38:57;;;;;;;8.48;3.95;;;10.00;44.10;;;;;;5138467;27;20072;-66
2021/04/15 07:42:05;;;;;;;7.63;3.67;;;10.00;43.50;;;;;;5117490;27;20067;-67
2021/04/15 07:44:46;;;;;;;10.63;3.53;;;10.00;44.00;;;;;;5113565;28;20385;-67
2021/04/15 07:47:56;;;;;;;12.85;3.63;;;10.00;44.10;;;;;;5122523;27;20357;-68
2021/04/15 07:50:40;;;;;;;10.63;3.67;;;10.10;43.80;;;;;;5121222;27;20171;-66
2021/04/15 07:53:08;;;;;;;11.45;3.58;;;10.10;43.20;;;;;;5122818;27;20059;-67
2021/04/15 07:55:54;;;;;;;9.75;3.50;;;10.20;43.40;;;;;;5117228;27;20026;-68
2021/04/15 07:58:39;;;;;;;5.43;3.10;;;10.20;43.20;;;;;;5132279;27;20035;-66
2021/04/15 08:01:17;;;;;;;;;;;10.20;43.50;;;;;;5119608;27;20381;-69
2021/04/15 08:04:20;;;;;;;8.85;3.45;;;10.20;44.20;;;;;;5126057;27;19911;-67
2021/04/15 08:06:54;;;;;;;10.02;4.00;;;10.20;43.90;;;;;;5112169;28;20028;-67
2021/04/15 08:09:55;;;;;;;7.70;3.53;;;10.20;43.90;;;;;;5124482;27;20383;-68
2021/04/15 08:12:45;;;;;;;13.10;4.57;;;10.30;44.00;;;;;;5117835;28;20041;-67
2021/04/15 08:15:32;;;;;;;13.23;4.13;;;10.30;44.10;;;;;;5132951;27;20153;-67
2021/04/15 08:18:23;;;;;;;8.60;3.72;;;10.40;44.10;;;;;;5121242;27;20524;-68
2021/04/15 08:21:22;;;;;;;7.82;4.07;;;10.50;44.20;;;;;;5131287;28;20027;-69
2021/04/15 08:24:11;;;;;;;10.23;3.78;;;10.60;44.00;;;;;;5132435;28;20049;-68
2021/04/15 08:27:14;;;;;;;13.25;4.38;;;10.60;43.90;;;;;;5129811;28;20102;-69
2021/04/15 08:30:33;;;;;;;8.77;4.43;;;10.70;43.80;;;;;;5125061;28;20046;-69
2021/04/15 08:33:03;;;;;;;16.98;5.10;;;10.80;43.80;;;;;;5107181;28;20028;-69
2021/04/15 08:35:51;;;;;;;10.55;4.80;;;10.90;43.60;;;;;;5123518;28;20130;-68
2021/04/15 08:38:22;;;;;;;8.60;4.07;;;11.00;43.60;;;;;;5132121;27;20047;-69
2021/04/15 08:41:03;;;;;;;9.50;4.22;;;11.10;43.30;;;;;;5125792;27;20073;-68
2021/04/15 08:43:37;;;;;;;18.90;5.57;;;11.20;42.40;;;;;;5126283;27;20035;-67
2021/04/15 08:47:02;;;;;;;8.93;4.32;;;11.30;42.50;;;;;;5115923;27;20023;-66
2021/04/15 08:49:43;;;;;;;9.02;4.38;;;11.40;42.60;;;;;;5092090;28;20059;-69
2021/04/15 08:52:17;;;;;;;10.88;5.20;;;11.60;42.30;;;;;;5103179;28;20603;-67
2021/04/15 08:55:01;;;;;;;12.32;4.75;;;11.70;41.40;;;;;;5113375;28;20544;-68
2021/04/15 08:57:38;;;;;;;11.38;4.25;;;11.80;40.80;;;;;;5113232;28;20055;-67
2021/04/15 09:00:29;;;;;;;15.13;5.07;;;11.80;41.00;;;;;;5114053;28;20073;-68
2021/04/15 09:03:16;;;;;;;12.65;3.85;;;11.90;40.60;;;;;;5103377;28;20569;-67
2021/04/15 09:06:07;;;;;;;8.05;3.78;;;12.00;40.50;;;;;;5113603;28;20042;-69
2021/04/15 09:08:32;;;;;;;8.00;4.20;;;12.10;40.00;;;;;;5113863;28;20055;-67
2021/04/15 09:11:15;;;;;;;8.25;3.38;;;12.20;39.80;;;;;;5112546;28;20521;-67
2021/04/15 09:13:58;;;;;;;11.40;4.47;;;12.30;39.80;;;;;;5113630;28;20047;-67
2021/04/15 09:16:38;;;;;;;9.10;3.38;;;12.50;39.80;;;;;;5113459;28;20023;-69
2021/04/15 09:19:11;;;;;;;5.72;2.83;;;12.70;39.40;;;;;;5113364;28;20066;-72
2021/04/15 09:21:46;;;;;;;8.55;3.45;;;12.80;40.10;;;;;;5134741;27;20027;-69
2021/04/15 09:24:21;;;;;;;4.22;2.63;;;12.90;39.20;;;;;;5129722;27;20145;-71
2021/04/15 09:27:23;;;;;;;8.10;4.25;;;13.00;39.20;;;;;;5120945;27;20020;-72
2021/04/15 09:30:20;;;;;;;5.30;3.15;;;13.00;39.30;;;;;;5136527;27;20072;-71
2021/04/15 09:33:07;;;;;;;5.65;2.95;;;13.00;39.10;;;;;;5124400;27;20414;-73
2021/04/15 09:35:58;;;;;;;10.30;3.42;;;12.90;39.40;;;;;;5133401;27;20361;-74
2021/04/15 09:39:05;;;;;;;3.95;2.45;;;12.90;39.90;;;;;;5136397;27;20468;-73
2021/04/15 09:41:50;;;;;;;3.47;2.25;;;12.60;41.40;;;;;;5072724;28;20036;-73
2021/04/15 09:44:46;;;;;;;5.20;2.10;;;12.40;42.30;;;;;;5108438;28;20396;-72
2021/04/15 09:47:21;;;;;;;9.73;3.22;;;12.20;43.70;;;;;;5080421;28;20388;-74
2021/04/15 09:50:31;;;;;;;8.82;3.47;;;12.00;44.20;;;;;;5082147;28;20076;-73
2021/04/15 09:53:41;;;;;;;4.88;2.78;;;11.80;45.00;;;;;;5034248;28;20230;-71
2021/04/15 09:56:46;;;;;;;5.40;2.33;;;11.80;44.20;;;;;;5020502;28;20042;-71
2021/04/15 09:59:29;;;;;;;6.60;2.03;;;11.70;44.90;;;;;;4956200;28;20040;-73
2021/04/15 10:02:25;;;;;;;6.22;2.28;;;11.70;44.40;;;;;;4985633;28;20081;-71
2021/04/15 10:04:56;;;;;;;5.40;2.15;;;11.70;43.10;;;;;;4993206;28;20044;-72
2021/04/15 10:07:30;;;;;;;9.68;2.45;;;11.70;43.20;;;;;;4992594;28;20081;-70
2021/04/15 10:10:05;;;;;;;5.93;2.60;;;11.70;43.50;;;;;;4992166;28;20064;-74
2021/04/15 10:12:51;;;;;;;4.03;2.53;;;11.70;43.60;;;;;;4992550;28;20030;-72
2021/04/15 10:15:58;;;;;;;4.70;2.60;;;11.80;43.60;;;;;;5008559;28;20609;-71
2021/04/15 10:18:49;;;;;;;6.35;2.78;;;11.90;43.20;;;;;;5031584;28;20022;-71
2021/04/15 10:21:39;;;;;;;9.63;2.63;;;12.10;43.10;;;;;;5000858;28;20042;-73
2021/04/15 10:24:13;;;;;;;6.18;2.90;;;12.30;43.50;;;;;;5007788;28;20148;-72
2021/04/15 10:27:26;;;;;;;7.82;3.00;;;12.60;43.40;;;;;;5031922;28;20026;-70
2021/04/15 10:30:17;;;;;;;14.93;3.78;;;12.80;41.90;;;;;;4985259;28;20035;-68
2021/04/15 10:33:01;;;;;;;11.00;3.97;;;12.80;41.50;;;;;;5012357;28;20060;-75
2021/04/15 10:35:57;;;;;;;5.40;3.33;;;12.80;41.20;;;;;;5056033;27;20114;-69
2021/04/15 10:38:34;;;;;;;6.05;2.53;;;12.60;41.00;;;;;;5134560;27;20060;-74
2021/04/15 10:41:18;;;;;;;4.57;2.55;;;12.60;41.10;;;;;;5134200;27;20091;-77
2021/04/15 10:44:15;;;;;;;12.55;3.17;;;12.50;41.70;;;;;;5140950;27;20011;-77
2021/04/15 10:47:04;;;;;;;11.95;3.22;;;12.50;42.00;;;;;;5130936;27;20397;-71
2021/04/15 10:49:57;;;;;;;27.98;5.03;;;12.50;41.60;;;;;;5124917;27;20040;-70
2021/04/15 10:52:43;;;;;;;16.30;3.08;;;12.40;41.90;;;;;;5130511;27;20077;-70
2021/04/15 10:55:16;;;;;;;17.58;3.47;;;12.40;42.60;;;;;;5127152;27;20552;-71
2021/04/15 10:57:42;;;;;;;8.57;3.50;;;12.40;42.60;;;;;;5133465;27;20096;-73
2021/04/15 11:00:33;;;;;;;7.72;3.05;;;12.40;42.50;;;;;;5131854;27;20155;-72
2021/04/15 11:03:21;;;;;;;11.15;3.85;;;12.50;42.20;;;;;;5120010;27;20033;-71
2021/04/15 11:05:55;;;;;;;15.00;3.55;;;12.50;40.80;;;;;;5132564;27;20038;-71
2021/04/15 11:08:31;;;;;;;;;;;12.50;40.50;;;;;;5129178;27;20376;-71
2021/04/15 11:11:23;;;;;;;7.57;3.47;;;12.60;41.70;;;;;;5125837;27;19919;-72
2021/04/15 11:14:10;;;;;;;11.25;3.50;;;12.70;40.40;;;;;;5129873;27;20361;-71
2021/04/15 11:16:37;;;;;;;14.98;3.33;;;12.70;40.50;;;;;;5132866;27;20068;-71
2021/04/15 11:19:08;;;;;;;6.43;2.83;;;12.70;40.00;;;;;;5133747;27;20022;-70
2021/04/15 11:21:37;;;;;;;8.80;3.22;;;12.80;39.70;;;;;;5142276;27;20066;-70
2021/04/15 11:24:27;;;;;;;5.32;2.80;;;12.90;39.60;;;;;;5136436;27;20023;-68
2021/04/15 11:26:59;;;;;;;6.68;2.65;;;13.00;39.70;;;;;;5134970;27;20030;-68
2021/04/15 11:29:36;;;;;;;6.03;2.72;;;13.20;38.60;;;;;;5132040;27;20026;-68
2021/04/15 11:32:40;;;;;;;7.13;2.75;;;13.40;38.50;;;;;;5114816;27;20052;-68
2021/04/15 11:35:16;;;;;;;4.28;2.13;;;13.70;39.00;;;;;;5131060;27;20434;-69
2021/04/15 11:37:44;;;;;;;5.85;2.75;;;14.00;38.50;;;;;;5128607;27;20585;-69
2021/04/15 11:40:25;;;;;;;7.28;2.22;;;14.20;36.80;;;;;;5131674;27;20071;-69
2021/04/15 11:42:52;;;;;;;5.47;2.15;;;14.40;34.90;;;;;;5111885;28;20119;-68
2021/04/15 11:45:28;;;;;;;4.63;1.70;;;14.60;32.90;;;;;;5128753;27;20102;-69
2021/04/15 11:48:26;;;;;;;3.80;1.70;;;14.70;32.30;;;;;;5132188;27;20058;-69
2021/04/15 11:51:14;;;;;;;3.53;1.67;;;14.80;32.10;;;;;;5136849;27;20041;-69
2021/04/15 11:53:48;;;;;;;5.43;1.83;;;14.90;32.50;;;;;;5131396;27;20029;-70
2021/04/15 11:56:23;;;;;;;4.17;1.80;;;15.00;31.90;;;;;;5130916;27;20025;-71
2021/04/15 11:58:50;;;;;;;9.63;1.60;;;15.10;31.40;;;;;;5124501;27;20054;-68
2021/04/15 12:01:30;;;;;;;3.38;1.73;;;15.20;31.70;;;;;;5133698;27;20027;-70
2021/04/15 12:04:01;;;;;;;5.20;2.13;;;15.20;31.80;;;;;;5132152;27;20027;-72
2021/04/15 12:06:38;;;;;;;3.30;2.05;;;15.20;31.30;;;;;;5130871;27;20022;-70
2021/04/15 12:09:06;;;;;;;5.60;1.85;;;15.20;31.30;;;;;;5130754;27;20464;-70
2021/04/15 12:11:38;;;;;;;4.75;2.08;;;15.10;30.90;;;;;;5130176;27;20437;-73
2021/04/15 12:14:16;;;;;;;2.92;1.55;;;15.00;31.00;;;;;;5132527;27;20027;-73
2021/04/15 12:17:12;;;;;;;3.58;2.20;;;15.00;31.40;;;;;;5129028;27;20038;-73
2021/04/15 12:19:57;;;;;;;5.60;2.40;;;14.90;31.50;;;;;;5112070;28;20030;-72
2021/04/15 12:22:28;;;;;;;;;;;14.80;31.30;;;;;;5112945;28;20053;-72
2021/04/15 12:25:14;;;;;;;7.45;2.40;;;14.80;32.90;;;;;;5112816;28;20284;-73
2021/04/15 12:27:41;;;;;;;7.07;1.83;;;14.80;31.90;;;;;;5111509;28;20493;-73
2021/04/15 12:30:07;;;;;;;6.63;2.00;;;14.80;31.50;;;;;;5127467;28;20061;-72
2021/04/15 12:32:57;;;;;;;9.43;2.63;;;14.80;31.10;;;;;;5111622;28;20485;-72
2021/04/15 12:35:32;;;;;;;5.28;2.28;;;14.80;31.10;;;;;;5127777;28;20035;-72
2021/04/15 12:38:07;;;;;;;5.20;2.60;;;14.90;30.60;;;;;;5123314;28;20496;-72
2021/04/15 12:40:39;;;;;;;8.93;2.30;;;15.10;30.70;;;;;;5122681;28;20030;-73
2021/04/15 12:43:27;;;;;;;7.50;2.33;;;15.30;31.10;;;;;;5129901;27;20027;-73
2021/04/15 12:46:00;;;;;;;3.10;2.00;;;15.50;30.70;;;;;;5111754;28;20342;-72
2021/04/15 12:48:41;;;;;;;5.30;2.53;;;15.60;29.80;;;;;;5111201;27;20035;-71
2021/04/15 12:51:10;;;;;;;4.70;2.50;;;15.70;29.80;;;;;;5131866;27;20051;-72
2021/04/15 12:53:40;;;;;;;3.17;2.00;;;15.80;30.50;;;;;;5130843;28;20027;-72
2021/04/15 12:56:07;;;;;;;3.30;2.08;;;15.80;30.00;;;;;;5131550;27;20480;-70
2021/04/15 12:58:33;;;;;;;6.88;3.03;;;15.80;30.20;;;;;;5129792;28;20049;-71
2021/04/15 13:01:01;;;;;;;10.85;1.92;;;15.80;30.40;;;;;;5131535;28;20464;-71
2021/04/15 13:03:40;;;;;;;6.63;2.58;;;15.60;31.10;;;;;;5132106;27;20023;-69
2021/04/15 13:06:07;;;;;;;6.43;2.30;;;15.50;31.30;;;;;;5132061;27;20413;-71
2021/04/15 13:08:33;;;;;;;3.25;1.80;;;15.30;31.10;;;;;;5131749;27;20050;-69
2021/04/15 13:11:06;;;;;;;2.63;1.75;;;15.10;32.00;;;;;;5131027;27;20050;-70
2021/04/15 13:13:41;;;;;;;4.13;1.90;;;15.00;33.10;;;;;;5131920;27;20472;-70
2021/04/15 13:16:32;;;;;;;5.15;2.17;;;14.80;33.30;;;;;;5132238;27;20023;-72
2021/04/15 13:19:22;;;;;;;3.67;2.10;;;14.70;33.30;;;;;;5129051;27;20061;-70
2021/04/15 13:22:08;;;;;;;3.38;1.98;;;14.70;34.00;;;;;;5111544;28;20489;-70
2021/04/15 13:24:46;;;;;;;3.72;2.22;;;14.80;33.60;;;;;;5111884;28;20035;-72
2021/04/15 13:27:37;;;;;;;4.85;2.17;;;14.90;33.70;;;;;;5112148;28;20039;-71
2021/04/15 13:30:24;;;;;;;5.32;2.22;;;14.90;32.90;;;;;;5126748;27;20101;-71
2021/04/15 13:33:07;;;;;;;5.82;2.20;;;15.00;32.50;;;;;;5136074;27;20365;-70
2021/04/15 13:35:56;;;;;;;3.20;2.08;;;15.10;32.20;;;;;;5114912;28;20041;-71
2021/04/15 13:41:25;;;;;;;5.25;2.13;;;15.30;32.40;;;;;;5112343;28;20028;-71
2021/04/15 13:44:09;;;;;;;2.38;1.90;;;15.40;32.10;;;;;;5112394;28;20015;-72
2021/04/15 13:46:36;;;;;;;3.47;2.03;;;15.40;31.70;;;;;;5095412;28;20516;-70
2021/04/15 13:49:05;;;;;;;4.43;2.33;;;15.40;32.00;;;;;;5099524;28;20036;-72
2021/04/15 13:51:43;;;;;;;2.95;1.83;;;15.50;32.10;;;;;;5073812;28;20044;-72
2021/04/15 13:54:20;;;;;;;5.70;1.77;;;15.50;32.50;;;;;;5091457;28;20032;-71
2021/04/15 13:56:54;;;;;;;2.88;1.70;;;15.70;31.20;;;;;;5088947;28;20524;-70